HOURLY OBS INDEX

022

Yorke Peninsula and Kangaroo Island

CAPE BORDA

Site: 022823
Alt: 158.0m
95km W of KINGSCOTE (KANGAROO ISLAND)


  Time     Wind        Temp  DP   Baro     Rain since   Rain past  Vis(m), Cloud(base in m), Weather
  local        km/h                         9am  last   hr   10m    
Tue 14:30   SW 33/ 46  21.4 14.6  1015.5    0.0   0.0   0.0   0.0   ----- 
Tue 15:00  SSW 32/ 43  22.1 14.3  1015.2    0.0   0.0   0.0   0.0   ----- 
Tue 15:00  SSW 32/ 43  22.1 14.3  1015.2    0.0   0.0  ----   0.0   ----- 
Tue 15:30    S 28/ 43  23.1 13.5  1014.9    0.0   0.0   0.0   0.0   ----- 
Tue 15:30    S 28/ 43  23.1 13.5  1014.9    0.0   0.0  ----   0.0   ----- 
Tue 16:00  SSE 28/ 37  22.9 13.1  1014.8    0.0   0.0   0.0   0.0   ----- 
Tue 16:30    S 28/ 37  21.8 13.1  1014.6    0.0   0.0   0.0   0.0   ----- 
Tue 17:00    S 24/ 35  22.1 13.1  1014.4    0.0   0.0   0.0   0.0   ----- 
Tue 17:30    S 24/ 32  22.0 13.0  1014.5    0.0   0.0   0.0   0.0   ----- 
Tue 18:00    S 24/ 33  21.1 13.3  1014.7    0.0   0.0   0.0   0.0   ----- 
Tue 18:30    S 26/ 33  20.3 13.7  1014.8    0.0   0.0   0.0   0.0   ----- 
Tue 19:00  SSE 22/ 32  19.2 13.8  1014.9    0.0   0.0   0.0   0.0   ----- 
Tue 19:00  SSE 22/ 32  19.2 13.8  1014.9    0.0   0.0  ----   0.0   ----- 
Tue 19:00  SSE 22/ 32  19.2 13.8  1014.9    0.0   0.0  ----   0.0   ----- 
Tue 19:00  SSE 22/ 32  19.2 13.8  1014.9    0.0   0.0  ----   0.0   ----- 
Tue 19:30   SE 24/ 33  17.8 13.4  1014.9    0.0   0.0   0.0   0.0   ----- 
Tue 20:00  SSE 24/ 30  16.8 13.4  1015.1    0.0   0.0   0.0   0.0   ----- 

CAPE WILLOUGHBY

Site: 022803
Alt: 55.0m
49km ESE of KINGSCOTE (KANGAROO ISLAND)


  Time     Wind        Temp  DP   Baro     Rain since   Rain past  Vis(m), Cloud(base in m), Weather
  local        km/h                         9am  last   hr   10m    
Tue 14:30    S 15/ 20  19.9 15.5  1015.2    0.0   0.0   0.0   0.0   ----- 
Tue 15:00    S 17/ 20  20.0 15.8  1015.0    0.0   0.0   0.0   0.0   ----- 
Tue 15:00    S 17/ 20  20.0 15.8  1015.0    0.0   0.0  ----   0.0   ----- 
Tue 15:30    S 19/ 24  19.5 15.8  1014.7    0.0   0.0   0.0   0.0   ----- 
Tue 15:30    S 19/ 24  19.5 15.8  1014.7    0.0   0.0  ----   0.0   ----- 
Tue 16:00    S 22/ 28  19.0 15.5  1014.5    0.0   0.0   0.0   0.0   ----- 
Tue 16:30    S 22/ 28  18.8 15.5  1014.4    0.0   0.0   0.0   0.0   ----- 
Tue 17:00    S 22/ 28  18.7 15.4  1014.4    0.0   0.0   0.0   0.0   ----- 
Tue 17:30    S 22/ 28  18.2 15.1  1014.3    0.0   0.0   0.0   0.0   ----- 
Tue 18:00    S 15/ 22  18.4 15.5  1014.4    0.0   0.0   0.0   0.0   ----- 
Tue 18:30  SSE 13/ 19  18.1 15.4  1014.6    0.0   0.0   0.0   0.0   ----- 
Tue 19:00    S 17/ 24  17.7 15.1  1014.7    0.0   0.0   0.0   0.0   ----- 
Tue 19:00    S 17/ 24  17.7 15.1  1014.7    0.0   0.0  ----   0.0   ----- 
Tue 19:00    S 17/ 24  17.7 15.1  1014.7    0.0   0.0  ----   0.0   ----- 
Tue 19:00    S 17/ 24  17.7 15.1  1014.7    0.0   0.0  ----   0.0   ----- 
Tue 19:30    S 19/ 22  17.6 15.4  1014.7    0.0   0.0   0.0   0.0   ----- 
Tue 20:00  SSE 17/ 24  17.4 15.4  1014.9    0.0   0.0   0.0   0.0   ----- 

EDITHBURGH

Site: 022046
Alt: 6.0m
61km N of KINGSCOTE (KANGAROO ISLAND)


  Time     Wind        Temp  DP   Baro     Rain since   Rain past  Vis(m), Cloud(base in m), Weather
  local        km/h                         9am  last   hr   10m    
Tue 14:30    S 19/ 24  23.1 16.0  1014.5    0.0   0.0   0.0   0.0   ----- 
Tue 15:00    S 19/ 24  22.4 16.5  1014.2    0.0   0.0   0.0   0.0   ----- 
Tue 15:00    S 19/ 24  22.4 16.5  1014.2    0.0   0.0  ----   0.0   ----- 
Tue 15:30    S 17/ 24  23.0 16.2  1014.0    0.0   0.0   0.0   0.0   ----- 
Tue 15:30    S 17/ 24  23.0 16.2  1014.0    0.0   0.0  ----   0.0   ----- 
Tue 16:00    S 19/ 24  22.1 16.5  1013.8    0.0   0.0   0.0   0.0   ----- 
Tue 16:30    S 19/ 24  22.6 16.7  1013.7    0.0   0.0   0.0   0.0   ----- 
Tue 17:00    S 19/ 26  22.3 16.5  1013.4    0.0   0.0   0.0   0.0   ----- 
Tue 17:30  SSW 22/ 28  22.3 16.4  1013.3    0.0   0.0   0.0   0.0   ----- 
Tue 18:00  SSW 19/ 26  21.7 16.2  1013.5    0.0   0.0   0.0   0.0   ----- 
Tue 18:30    S 20/ 26  21.2 16.4  1013.7    0.0   0.0   0.0   0.0   ----- 
Tue 19:00    S 20/ 24  20.4 16.1  1013.9    0.0   0.0   0.0   0.0   ----- 
Tue 19:00    S 20/ 24  20.4 16.1  1013.9    0.0   0.0  ----   0.0   ----- 
Tue 19:00    S 20/ 24  20.4 16.1  1013.9    0.0   0.0  ----   0.0   ----- 
Tue 19:00    S 20/ 24  20.4 16.1  1013.9    0.0   0.0  ----   0.0   ----- 
Tue 19:30    S 20/ 24  19.8 16.1  1014.1    0.0   0.0   0.0   0.0   ----- 
Tue 20:00    S 20/ 28  19.5 16.2  1014.1    0.0   0.0   0.0   0.0   ----- 

KADINA AWS

Site: 022050
Alt: 41.1m
45km N of MAITLAND (YORKE PENINSULA)


  Time     Wind        Temp  DP   Baro     Rain since   Rain past  Vis(m), Cloud(base in m), Weather
  local        km/h                         9am  last   hr   10m    
Tue 14:30   SW 32/ 41  24.9 15.2  1014.3    0.0   0.0   0.0   0.0   ----- 
Tue 15:00   SW 28/ 35  25.3 15.0  1013.9    0.0   0.0   0.0   0.0   ----- 
Tue 15:00   SW 28/ 35  25.3 15.0  1013.9    0.0   0.0  ----   0.0   ----- 
Tue 15:30  WSW 30/ 37  24.7 15.6  1013.6    0.0   0.0   0.0   0.0   ----- 
Tue 15:30  WSW 30/ 37  24.7 15.6  1013.6    0.0   0.0  ----   0.0   ----- 
Tue 16:00   SW 28/ 37  24.8 15.7  1013.6    0.0   0.0   0.0   0.0   ----- 
Tue 16:30   SW 32/ 39  24.1 15.6  1013.5    0.0   0.0   0.0   0.0   ----- 
Tue 17:00   SW 30/ 41  23.2 15.5  1013.4    0.0   0.0   0.0   0.0   ----- 
Tue 17:30   SW 28/ 35  23.1 15.2  1013.4    0.0   0.0   0.0   0.0   ----- 
Tue 18:00   SW 24/ 32  23.6 14.9  1013.4    0.0   0.0   0.0   0.0   ----- 
Tue 18:30   SW 22/ 30  23.8 13.9  1013.5    0.0   0.0   0.0   0.0   ----- 
Tue 19:00  SSW 19/ 24  22.9 13.9  1013.7    0.0   0.0   0.0   0.0   ----- 
Tue 19:00  SSW 19/ 24  22.9 13.9  1013.7    0.0   0.0  ----   0.0   ----- 
Tue 19:00  SSW 19/ 24  22.9 13.9  1013.7    0.0   0.0  ----   0.0   ----- 
Tue 19:00  SSW 19/ 24  22.9 13.9  1013.7    0.0   0.0  ----   0.0   ----- 
Tue 19:30  SSW 15/ 19  21.5 14.2  1014.1    0.0   0.0   0.0   0.0   ----- 
Tue 20:00  SSW 13/ 13  20.1 14.2  1014.3    0.0   0.0   0.0   0.0   ----- 

KINGSCOTE AERO

Site: 022841
Alt: 6.2m
12km WSW of KINGSCOTE (KANGAROO ISLAND)


  Time     Wind        Temp  DP   Baro     Rain since   Rain past  Vis(m), Cloud(base in m), Weather
  local        km/h                         9am  last   hr   10m    
Tue 14:30   SE 19/ 28  24.2 14.6  1014.8    0.0   0.0   0.0   0.0   10000 
Tue 15:00  SSE 22/ 32  24.2 14.6  1014.5    0.0   0.0   0.0   0.0   10000 
Tue 15:00  SSE 22/ 32  24.2 14.6  1014.5    0.0   0.0  ----   0.0   10000 
Tue 15:30  SSE 20/ 30  24.2 14.9  1014.4    0.0   0.0   0.0   0.0   10000|SC1080 
Tue 15:30  SSE 20/ 30  24.2 14.9  1014.4    0.0   0.0  ----   0.0   10000|SC1080 
Tue 16:00  SSE 22/ 33  23.1 14.4  1014.2    0.0   0.0   0.0   0.0   10000|SC 930 
Tue 16:30   SE 22/ 32  24.1 15.1  1014.1    0.0   0.0   0.0   0.0   10000|SC 930 
Tue 17:00  SSE 24/ 35  23.2 14.7  1013.8    0.0   0.0   0.0   0.0   10000|SC 930 
Tue 17:30   SE 22/ 30  23.7 15.2  1013.8    0.0   0.0   0.0   0.0   10000|SC 930 
Tue 18:00   SE 22/ 30  22.1 14.7  1013.9    0.0   0.0   0.0   0.0   10000 
Tue 18:30  SSE 22/ 30  21.3 14.9  1014.1    0.0   0.0   0.0   0.0   10000 
Tue 19:00  SSE 22/ 28  20.5 14.6  1014.5    0.0   0.0   0.0   0.0   10000 
Tue 19:00  SSE 22/ 28  20.5 14.6  1014.5    0.0   0.0  ----   0.0   10000 
Tue 19:00  SSE 22/ 28  20.5 14.6  1014.5    0.0   0.0  ----   0.0   10000 
Tue 19:00  SSE 22/ 28  20.5 14.6  1014.5    0.0   0.0  ----   0.0   10000 
Tue 19:30  SSE 20/ 26  19.5 14.5  1014.6    0.0   0.0   0.0   0.0   10000 
Tue 20:00    S 17/ 22  18.5 14.4  1014.8    0.0   0.0   0.0   0.0   10000 

MINLATON AERO

Site: 022031
Alt: 32.0m
44km SSW of MAITLAND (YORKE PENINSULA)


  Time     Wind        Temp  DP   Baro     Rain since   Rain past  Vis(m), Cloud(base in m), Weather
  local        km/h                         9am  last   hr   10m    
Tue 14:30    W 24/ 32  23.7 15.2  1014.5    0.0   0.0   0.0   0.0   ----- 
Tue 15:00    W 24/ 30  24.1 15.6  1014.1    0.0   0.0   0.0   0.0   ----- 
Tue 15:00    W 24/ 30  24.1 15.6  1014.1    0.0   0.0  ----   0.0   ----- 
Tue 15:30    W 24/ 30  23.5 15.0  1014.0    0.0   0.0   0.0   0.0   ----- 
Tue 15:30    W 24/ 30  23.5 15.0  1014.0    0.0   0.0  ----   0.0   ----- 
Tue 16:00    W 28/ 32  23.6 15.4  1013.8    0.0   0.0   0.0   0.0   ----- 
Tue 16:30    W 26/ 32  23.7 14.9  1013.5    0.0   0.0   0.0   0.0   ----- 
Tue 17:00    W 28/ 32  23.3 14.6  1013.3    0.0   0.0   0.0   0.0   ----- 
Tue 17:30    W 28/ 33  23.5 14.2  1013.4    0.0   0.0   0.0   0.0   ----- 
Tue 18:00    W 20/ 26  23.6 15.4  1013.4    0.0   0.0   0.0   0.0   ----- 
Tue 18:30    W 24/ 30  23.1 16.2  1013.6    0.0   0.0   0.0   0.0   ----- 
Tue 19:00    S 22/ 28  23.1 14.1  1013.8    0.0   0.0   0.0   0.0   ----- 
Tue 19:00    S 22/ 28  23.1 14.1  1013.8    0.0   0.0  ----   0.0   ----- 
Tue 19:00    S 22/ 28  23.1 14.1  1013.8    0.0   0.0  ----   0.0   ----- 
Tue 19:00    S 22/ 28  23.1 14.1  1013.8    0.0   0.0  ----   0.0   ----- 
Tue 19:30    S 20/ 24  21.2 14.4  1013.9    0.0   0.0   0.0   0.0   ----- 
Tue 20:00    S 19/ 20  19.6 14.2  1014.1    0.0   0.0   0.0   0.0   ----- 

MOONTA (WARBURTO POINT)

Site: 022053
Alt: 1.0m
43km NNW of MAITLAND (YORKE PENINSULA)


  Time     Wind        Temp  DP   Baro     Rain since   Rain past  Vis(m), Cloud(base in m), Weather
  local        km/h                         9am  last   hr   10m    
Tue 14:30   SW 30/ 39 --------  ------   ----  ----  ----  ----   ----- 
Tue 15:00   SW 30/ 35 --------  ------   ----  ----  ----  ----   ----- 
Tue 15:00   SW 30/ 35 --------  ------   ----  ----  ----  ----   ----- 
Tue 15:30   SW 30/ 37 --------  ------   ----  ----  ----  ----   ----- 
Tue 15:30   SW 30/ 37 --------  ------   ----  ----  ----  ----   ----- 
Tue 16:00   SW 28/ 35 --------  ------   ----  ----  ----  ----   ----- 
Tue 16:30   SW 30/ 37 --------  ------   ----  ----  ----  ----   ----- 
Tue 17:00   SW 28/ 35 --------  ------   ----  ----  ----  ----   ----- 
Tue 17:30  SSW 26/ 32 --------  ------   ----  ----  ----  ----   ----- 
Tue 18:00  SSW 26/ 30 --------  ------   ----  ----  ----  ----   ----- 
Tue 18:30  SSW 24/ 30 --------  ------   ----  ----  ----  ----   ----- 
Tue 19:00  SSW 24/ 30 --------  ------   ----  ----  ----  ----   ----- 
Tue 19:00  SSW 24/ 30 --------  ------   ----  ----  ----  ----   ----- 
Tue 19:00  SSW 24/ 30 --------  ------   ----  ----  ----  ----   ----- 
Tue 19:00  SSW 24/ 30 --------  ------   ----  ----  ----  ----   ----- 
Tue 19:30  SSW 24/ 30 --------  ------   ----  ----  ----  ----   ----- 
Tue 20:00  SSW 20/ 28 --------  ------   ----  ----  ----  ----   ----- 

PARNDANA CFS AWS

Site: 022843
Alt: 165.0m
38km WSW of KINGSCOTE (KANGAROO ISLAND)


  Time     Wind        Temp  DP   Baro     Rain since   Rain past  Vis(m), Cloud(base in m), Weather
  local        km/h                         9am  last   hr   10m    
Tue 14:30  SSW 15/ 20  23.3 13.5  ------    0.0   0.0   0.0   0.0   ----- 
Tue 15:00  SSW 19/ 26  23.8 14.2  ------    0.0   0.0   0.0   0.0   ----- 
Tue 15:00  SSW 19/ 26  23.8 14.2  ------    0.0   0.0  ----   0.0   ----- 
Tue 15:30  SSW 20/ 35  22.9 13.9  ------    0.0   0.0   0.0   0.0   ----- 
Tue 15:30  SSW 20/ 35  22.9 13.9  ------    0.0   0.0  ----   0.0   ----- 
Tue 16:00    S 22/ 32  21.9 14.0  ------    0.0   0.0   0.0   0.0   ----- 
Tue 16:30  SSE 22/ 30  21.1 13.8  ------    0.0   0.0   0.0   0.0   ----- 
Tue 17:00    S 20/ 28  21.1 13.5  ------    0.0   0.0   0.0   0.0   ----- 
Tue 17:30    S 17/ 24  21.0 14.2  ------    0.0   0.0   0.0   0.0   ----- 
Tue 18:00    S 17/ 24  20.2 13.6  ------    0.0   0.0   0.0   0.0   ----- 
Tue 18:30    S 19/ 26  19.4 13.6  ------    0.0   0.0   0.0   0.0   ----- 
Tue 19:00    S 20/ 24  18.5 13.8  ------    0.0   0.0   0.0   0.0   ----- 
Tue 19:00    S 20/ 24  18.5 13.8  ------    0.0   0.0  ----   0.0   ----- 
Tue 19:00    S 20/ 24  18.5 13.8  ------    0.0   0.0  ----   0.0   ----- 
Tue 19:00    S 20/ 24  18.5 13.8  ------    0.0   0.0  ----   0.0   ----- 
Tue 19:30    S 17/ 26  17.4 13.7  ------    0.0   0.0   0.0   0.0   ----- 
Tue 20:00    S 13/ 17  16.6 13.5  ------    0.0   0.0   0.0   0.0   ----- 

STENHOUSE BAY

Site: 022049
Alt: 42.0m
76km WNW of KINGSCOTE (KANGAROO ISLAND)


  Time     Wind        Temp  DP   Baro     Rain since   Rain past  Vis(m), Cloud(base in m), Weather
  local        km/h                         9am  last   hr   10m    
Tue 14:30   SW 20/ 28  21.7 13.3  1015.2    0.0   0.0   0.0   0.0   ----- 
Tue 15:00   SW 20/ 26  21.9 14.3  1014.8    0.0   0.0   0.0   0.0   ----- 
Tue 15:00   SW 20/ 26  21.9 14.3  1014.8    0.0   0.0  ----   0.0   ----- 
Tue 15:30   SW 22/ 28  22.4 14.8  1014.6    0.0   0.0   0.0   0.0   ----- 
Tue 15:30   SW 22/ 28  22.4 14.8  1014.6    0.0   0.0  ----   0.0   ----- 
Tue 16:00   SW 22/ 30  22.3 14.9  1014.4    0.0   0.0   0.0   0.0   ----- 
Tue 16:30   SW 20/ 30  21.7 15.3  1014.1    0.0   0.0   0.0   0.0   ----- 
Tue 17:00   SW 20/ 28  21.8 14.9  1013.7    0.0   0.0   0.0   0.0   ----- 
Tue 17:30   SW 22/ 30  21.4 15.3  1013.7    0.0   0.0   0.0   0.0   ----- 
Tue 18:00   SW 19/ 24  21.3 15.4  1013.8    0.0   0.0   0.0   0.0   ----- 
Tue 18:30   SW 17/ 22  21.1 15.9  1013.9    0.0   0.0   0.0   0.0   ----- 
Tue 19:00  SSW  7/ 11  21.1 16.5  1014.2    0.0   0.0   0.0   0.0   ----- 
Tue 19:00  SSW  7/ 11  21.1 16.5  1014.2    0.0   0.0  ----   0.0   ----- 
Tue 19:00  SSW  7/ 11  21.1 16.5  1014.2    0.0   0.0  ----   0.0   ----- 
Tue 19:00  SSW  7/ 11  21.1 16.5  1014.2    0.0   0.0  ----   0.0   ----- 
Tue 19:30  SSE 11/ 13  20.7 17.3  1014.1    0.0   0.0   0.0   0.0   ----- 
Tue 20:00   SE 26/ 32  20.3 15.3  1014.3    0.0   0.0   0.0   0.0   -----